PMDY METAR and TAF weather

Enter ICAO airport designator
Station Type Date Time Source
PMDY METAR 2021/05/11 22:56 UTC NOAA

PMDY 112256Z AUTO 09012KT 10SM 25/19 A3026 RMK AO2 SLP247 T02500189


Station Type Date Time Source
PMDY Decoded METAR 2021/05/11 22:56 UTC NOAA

Sand Island, Henderson Field Airport, HI, United States (PMDY) 28-13N 177-22W 6M
May 11, 2021 - 06:56 PM EDT / 2021.05.11 2256 UTC
Wind: from the E (090 degrees) at 14 MPH (12 KT):0
Visibility: 10 mile(s):0
Temperature: 77.0 F (25.0 C)
Dew Point: 66.0 F (18.9 C)
Relative Humidity: 68%
Pressure (altimeter): 30.26 in. Hg (1024 hPa)
ob: PMDY 112256Z AUTO 09012KT 10SM 25/19 A3026 RMK AO2 SLP247 T02500189
cycle: 23

Station Type Date Time Source
PMDY TAF 2021/05/11 18:45 UTC NOAA

TAF PMDY 111742Z 1118/1218 08009KT P6SM FEW020 SCT040

Example: see airport list